• Join FlightAware (Why Join?)
  • Login
  • US Flag 
02:04PM EDT


 

Airport Tracker/Info


-or-


 

Live Flight TrackerFlight Track Log ✈ SWA2182 ✈ 22-Feb-2014 ✈ KTPA - KBDL

Flight Track Log - Related Links

Times and Time Zones

All times are in EST time to prevent confusion due to time zone crossing. See the SWA2182 flight status page for this flight to view local times or setup timezone preferences in your user account.

Time Position Orientation Groundspeed Altitude Reporting Facility
EST Latitude Longitude Course Direction KTS MPH feet Rate Location/Type
06:13PM 27.9667 -82.5500 196° South 176 203 900  Level Tampa TRACON
06:14PM 27.9167 -82.5667 207° Southwest 200 230 2,800 2,460 Climbing Tampa TRACON
06:16PM 27.8833 -82.6167 233° Southwest 226 260 6,100 2,700 Climbing Tampa TRACON
06:18PM 27.9911 -82.6811 332° Northwest 264 304 11,400 2,700 Climbing Jacksonville Center
06:19PM 28.0914 -82.6667 North 307 353 14,500 3,000 Climbing Jacksonville Center
06:20PM 28.1997 -82.6522 North 352 405 17,400 2,880 Climbing Jacksonville Center
06:21PM 28.3083 -82.6381 North 382 440 20,300 2,580 Climbing Jacksonville Center
06:22PM 28.4231 -82.6236 North 397 457 22,600 2,280 Climbing Jacksonville Center
06:23PM 28.5397 -82.6089 North 411 473 24,900 2,220 Climbing Jacksonville Center
06:24PM 28.6589 -82.5944 North 416 479 27,100 1,800 Climbing Jacksonville Center
06:25PM 28.7653 -82.6036 356° North 425 489 28,600 1,500 Climbing Jacksonville Center
06:26PM 28.8842 -82.6200 353° North 424 488 30,100 1,740 Climbing Jacksonville Center
06:27PM 29.0075 -82.6361 353° North 430 495 32,100 1,680 Climbing Jacksonville Center
06:28PM 29.1328 -82.6525 353° North 442 509 33,500 1,380 Climbing Jacksonville Center
06:29PM 29.2558 -82.6711 352° North 447 514 34,900 1,560 Climbing Jacksonville Center
06:30PM 29.3769 -82.6875 353° North 447 514 36,700 1,680 Climbing Jacksonville Center
06:31PM 29.5003 -82.6969 356° North 442 509 38,300 1,140 Climbing Jacksonville Center
06:32PM 29.6169 -82.6942 North 442 509 39,000 300 Climbing Jacksonville Center
06:33PM 29.7381 -82.6917 North 432 497 39,000  Level Jacksonville Center
06:34PM 29.8572 -82.6628 12° North 432 497 39,000  Level Jacksonville Center
06:35PM 29.9781 -82.6192 17° North 442 509 39,000  Level Jacksonville Center
06:36PM 30.0969 -82.5853 14° North 442 509 39,000  Level Jacksonville Center
06:37PM 30.2200 -82.5464 15° North 442 509 39,000  Level Jacksonville Center
06:38PM 30.3411 -82.5075 15° North 437 503 39,000  Level Jacksonville Center
06:39PM 30.4642 -82.4683 15° North 442 509 39,000  Level Jacksonville Center
06:40PM 30.5872 -82.4269 16° North 447 514 39,000  Level Jacksonville Center
06:41PM 30.7058 -82.3611 26° Northeast 457 526 39,000  Level Jacksonville Center
06:42PM 30.8142 -82.2686 36° Northeast 469 540 39,000  Level Jacksonville Center
06:43PM 30.9222 -82.1733 37° Northeast 476 548 39,000  Level Jacksonville Center
06:44PM 31.0303 -82.0781 37° Northeast 482 555 39,000  Level Jacksonville Center
06:45PM 31.1464 -81.9822 35° Northeast 482 555 39,000  Level Jacksonville Center
06:46PM 31.2564 -81.8889 36° Northeast 476 548 39,000  Level Jacksonville Center
06:47PM 31.3683 -81.7975 35° Northeast 482 555 39,000  Level Jacksonville Center
06:48PM 31.4761 -81.7064 36° Northeast 477 549 39,000  Level Jacksonville Center
06:49PM 31.5839 -81.6147 36° Northeast 477 549 39,000  Level Jacksonville Center
06:50PM 31.6811 -81.5328 36° Northeast 477 549 39,000  Level Jacksonville Center
06:51PM 31.7908 -81.4358 37° Northeast 477 549 39,000  Level Jacksonville Center
06:52PM 31.9025 -81.3483 34° Northeast 477 549 39,000  Level Jacksonville Center
06:53PM 32.0119 -81.2583 35° Northeast 477 549 39,000  Level Jacksonville Center
06:54PM 32.1192 -81.1658 36° Northeast 477 549 39,000  Level Jacksonville Center
06:55PM 32.2267 -81.0728 36° Northeast 477 549 39,000  Level Jacksonville Center
06:56PM 32.3461 -80.9744 35° Northeast 476 548 39,000  Level Jacksonville Center
06:57PM 32.4450 -80.8886 36° Northeast 476 548 39,000  Level Jacksonville Center
06:58PM 32.5542 -80.7950 36° Northeast 476 548 39,000  Level Jacksonville Center
06:59PM 32.6633 -80.7039 35° Northeast 476 548 39,000  Level Jacksonville Center
07:00PM 32.7742 -80.6072 36° Northeast 481 554 39,000  Level Jacksonville Center
07:01PM 32.8833 -80.5156 35° Northeast 481 554 39,000  Level Jacksonville Center
07:02PM 32.9900 -80.4208 37° Northeast 481 554 39,000  Level Jacksonville Center
07:03PM 33.1028 -80.3211 37° Northeast 487 560 39,000  Level Jacksonville Center
07:04PM 33.2281 -80.2183 34° Northeast 487 560 39,000  Level Jacksonville Center
07:05PM 33.3322 -80.1206 38° Northeast 487 560 39,000  Level Jacksonville Center
07:06PM 33.4428 -80.0250 36° Northeast 487 560 39,000  Level Jacksonville Center
07:07PM 33.5533 -79.9292 36° Northeast 487 560 39,000  Level Jacksonville Center
07:08PM 33.6594 -79.8333 37° Northeast 487 560 39,000  Level Jacksonville Center
07:09PM 33.7697 -79.7322 37° Northeast 487 560 39,000  Level Jacksonville Center
07:10PM 33.8800 -79.6356 36° Northeast 487 560 39,000  Level Jacksonville Center
07:11PM 33.9878 -79.5364 37° Northeast 487 560 39,000  Level Jacksonville Center
07:12PM 34.1000 -79.4394 36° Northeast 487 560 39,000  Level Jacksonville Center
07:13PM 34.1917 -79.3553 37° Northeast 473 544 39,000  Level Jacksonville Center
07:15PM 34.4431 -79.1275 37° Northeast 488 562 39,000  Level Washington Center
07:16PM 34.5544 -79.0289 36° Northeast 481 554 39,000  Level Washington Center
07:17PM 34.6614 -78.9300 37° Northeast 481 554 39,000  Level Washington Center
07:18PM 34.7683 -78.8333 37° Northeast 481 554 39,000  Level Washington Center
07:19PM 34.8756 -78.7339 37° Northeast 481 554 39,000  Level Washington Center
07:20PM 34.9822 -78.6339 38° Northeast 481 554 39,000  Level Washington Center
07:21PM 35.0933 -78.5317 37° Northeast 481 554 39,000  Level Washington Center
07:22PM 35.2003 -78.4311 38° Northeast 481 554 39,000  Level Washington Center
07:23PM 35.3089 -78.3281 38° Northeast 481 554 39,000  Level Washington Center
07:24PM 35.4178 -78.2272 37° Northeast 486 559 39,000  Level Washington Center
07:25PM 35.5411 -78.1142 37° Northeast 496 571 39,000  Level Washington Center
07:26PM 35.6494 -78.0153 37° Northeast 496 571 39,000  Level Washington Center
07:27PM 35.7581 -77.9111 38° Northeast 496 571 39,000  Level Washington Center
07:28PM 35.8686 -77.8092 37° Northeast 496 571 39,000  Level Washington Center
07:29PM 35.9808 -77.7044 37° Northeast 496 571 39,000  Level Washington Center
07:30PM 36.0892 -77.6019 37° Northeast 496 571 39,000  Level Washington Center
07:31PM 36.2014 -77.4994 36° Northeast 496 571 39,000  Level Washington Center
07:32PM 36.2947 -77.4089 38° Northeast 490 564 39,000  Level Washington Center
07:33PM 36.4131 -77.2928 38° Northeast 490 564 39,000  Level Washington Center
07:34PM 36.5231 -77.1919 36° Northeast 495 570 39,000  Level Washington Center
07:35PM 36.6350 -77.0881 37° Northeast 495 570 39,000  Level Washington Center
07:36PM 36.7425 -76.9839 38° Northeast 495 570 39,000  Level Washington Center
07:37PM 36.8522 -76.8844 36° Northeast 495 570 39,000  Level Washington Center
07:38PM 36.9658 -76.7850 35° Northeast 488 562 39,000  Level Washington Center
07:39PM 37.0753 -76.6825 37° Northeast 488 562 39,000  Level Washington Center
07:40PM 37.1889 -76.5825 35° Northeast 488 562 39,000  Level Washington Center
07:41PM 37.3003 -76.4794 36° Northeast 488 562 39,000  Level Washington Center
07:42PM 37.4031 -76.3867 36° Northeast 488 562 39,000  Level Washington Center
07:43PM 37.5122 -76.2856 36° Northeast 493 567 39,000  Level Washington Center
07:44PM 37.6253 -76.1844 35° Northeast 493 567 39,000  Level Washington Center
07:45PM 37.7489 -76.0750 35° Northeast 493 567 39,000  Level Washington Center
07:46PM 37.8472 -75.9731 39° Northeast 498 573 39,000  Level Washington Center
07:47PM 37.9600 -75.8708 36° Northeast 503 579 39,000  Level Washington Center
07:48PM 38.0708 -75.7658 37° Northeast 503 579 39,000  Level Washington Center
07:49PM 38.1814 -75.6631 36° Northeast 503 579 39,000  Level Washington Center
07:50PM 38.2942 -75.5600 36° Northeast 503 579 39,000  Level Washington Center
07:51PM 38.4253 -75.4778 26° Northeast 486 559 39,000  Level Washington Center
07:52PM 38.5525 -75.4244 18° North 475 547 39,000  Level Washington Center
07:53PM 38.6775 -75.3603 22° Northeast 475 547 39,000  Level Washington Center
07:54PM 38.7961 -75.2667 32° Northeast 486 559 39,000  Level Washington Center
07:55PM 38.9125 -75.1700 33° Northeast 491 565 39,000  Level Washington Center
07:56PM 39.0308 -75.0758 32° Northeast 491 565 39,000  Level Washington Center
07:57PM 39.1492 -74.9786 32° Northeast 496 571 39,000 -300 Level Washington Center
07:58PM 39.2653 -74.8731 35° Northeast 496 571 38,500 -720 Descending Washington Center
07:59PM 39.3814 -74.7567 38° Northeast 514 592 37,600 -900 Descending Washington Center
08:00PM 39.4931 -74.6422 38° Northeast 519 597 36,700 -960 Descending Washington Center
08:01PM 39.6086 -74.5250 38° Northeast 519 597 35,700 -1,020 Descending Washington Center
08:02PM 39.7244 -74.4125 37° Northeast 519 597 34,800 -1,200 Descending Washington Center
08:03PM 39.8594 -74.2728 38° Northeast 519 597 33,100 -1,500 Descending New York Center
08:04PM 39.9753 -74.1567 38° Northeast 519 597 31,500 -2,160 Descending New York Center
08:05PM 40.0914 -74.0350 39° Northeast 524 603 28,800 -2,340 Descending New York Center
08:06PM 40.2028 -73.9206 38° Northeast 524 603 26,800 -1,500 Descending New York Center
08:07PM 40.3228 -73.7956 38° Northeast 514 592 25,800 -1,080 Descending New York Center
08:09PM 40.5658 -73.5447 38° Northeast 496 571 23,500 -1,320 Descending Boston Center
08:10PM 40.6706 -73.4328 39° Northeast 490 564 21,600 -2,040 Descending Boston Center
08:11PM 40.7689 -73.3294 39° Northeast 474 545 19,400 -1,320 Descending Boston Center
08:12PM 40.8628 -73.2239 40° Northeast 456 525 19,000 -240 Descending Boston Center
08:13PM 40.9522 -73.1194 41° Northeast 439 505 19,000 -600 Level Boston Center
08:14PM 41.0425 -73.0131 42° Northeast 428 493 17,900 -1,800 Descending Boston Center
08:15PM 41.1197 -72.9203 42° Northeast 414 476 15,800 -2,220 Descending Boston Center
08:16PM 41.1294 -72.9106 37° Northeast 418 481 15,700 -1,980 Descending Boston Center
08:16PM 41.1675 -72.8661 41° Northeast 408 470 14,600 -2,220 Descending Boston Center
08:17PM 41.2131 -72.8128 41° Northeast 407 468 13,500 -2,340 Descending Boston Center
08:17PM 41.2531 -72.7650 42° Northeast 392 451 12,300 -2,460 Descending Boston Center
08:18PM 41.3064 -72.7200 32° Northeast 378 435 11,000 -1,380 Descending Boston Center
08:18PM 41.3406 -72.7161 North 322 371 10,900 -1,020 Descending Boston Center
08:19PM 41.3956 -72.7078 North 323 372 10,000 -900 Descending Boston Center
08:19PM 41.4317 -72.7028 North 311 358 10,000 -300 Level Boston Center
08:20PM 41.4775 -72.6950 North 295 339 9,700 -900 Descending Boston Center
08:20PM 41.5078 -72.6897 North 280 322 9,100 -1,380 Descending Boston Center
08:21PM 41.5531 -72.6808 North 277 319 8,300 -1,320 Descending Boston Center
08:21PM 41.5839 -72.6767 North 273 314 7,800 -1,380 Descending Boston Center
08:22PM 41.6322 -72.6706 North 265 305 6,900 -1,320 Descending Boston Center
08:22PM 41.6567 -72.6681 North 260 299 6,500 -1,320 Descending Boston Center
08:23PM 41.7033 -72.6650 North 259 298 5,600 -1,500 Descending Boston Center
08:23PM 41.7292 -72.6622 North 256 295 5,000 -1,620 Descending Boston Center
08:24PM 41.7756 -72.6589 North 260 299 4,000 -1,140 Descending Boston Center
08:24PM 41.8033 -72.6572 North 270 311 3,900 -1,320 Descending Boston Center
08:25PM 41.8458 -72.6506 North 256 295 2,700 -1,620 Descending Boston Center
08:25PM 41.8711 -72.6322 28° Northeast 273 314 2,300 -600 Descending Boston Center
08:26PM 41.9078 -72.5958 36° Northeast 237 273 2,100 -240 Descending Boston Center
08:26PM 41.9200 -72.5806 43° Northeast 204 235 2,100  Level Boston Center
08:27PM 41.9533 -72.5633 21° North 189 217 2,100  Level Boston Center
08:27PM 41.9658 -72.5681 344° North 160 184 2,100 -120 Level Boston Center
08:28PM 41.9883 -72.5883 326° Northwest 140 161 2,000 -300 Descending Boston Center
08:28PM 41.9892 -72.6022 275° West 108 124 1,800 -840 Descending Boston Center
08:29PM 41.9842 -72.6281 255° West 109 125 1,200 -900 Descending Boston Center
08:29PM 41.9750 -72.6406 225° Southwest 110 127 900 -840 Descending Boston Center
08:30PM 41.9586 -72.6622 225° Southwest 118 136 400 -480 Descending Boston Center
08:31PM 41.9339 -72.6939 224° Southwest 122 140 100 -300 Descending Boston Center